sensor_id;sensor_type;location;lat;lon;timestamp;P1;durP1;ratioP1;P2;durP2;ratioP2
27800;SDS011;15181;49.112;11.930;2022-12-01T00:00:14;34.42;;;31.27;;
27800;SDS011;15181;49.112;11.930;2022-12-01T00:02:41;36.72;;;33.30;;
27800;SDS011;15181;49.112;11.930;2022-12-01T00:05:08;35.45;;;32.08;;
27800;SDS011;15181;49.112;11.930;2022-12-01T00:07:34;36.42;;;33.03;;
27800;SDS011;15181;49.112;11.930;2022-12-01T00:10:01;35.80;;;32.50;;
27800;SDS011;15181;49.112;11.930;2022-12-01T00:12:47;36.33;;;32.83;;
27800;SDS011;15181;49.112;11.930;2022-12-01T00:15:14;34.92;;;31.65;;
27800;SDS011;15181;49.112;11.930;2022-12-01T00:17:41;35.80;;;32.50;;
27800;SDS011;15181;49.112;11.930;2022-12-01T00:20:09;35.53;;;32.17;;
27800;SDS011;15181;49.112;11.930;2022-12-01T00:22:37;36.67;;;33.28;;
27800;SDS011;15181;49.112;11.930;2022-12-01T00:25:07;37.47;;;33.97;;
27800;SDS011;15181;49.112;11.930;2022-12-01T00:27:34;35.72;;;32.40;;
27800;SDS011;15181;49.112;11.930;2022-12-01T00:30:02;35.47;;;32.25;;
27800;SDS011;15181;49.112;11.930;2022-12-01T00:32:30;36.97;;;33.33;;
27800;SDS011;15181;49.112;11.930;2022-12-01T00:34:57;36.22;;;32.80;;
27800;SDS011;15181;49.112;11.930;2022-12-01T00:37:24;37.55;;;34.05;;
27800;SDS011;15181;49.112;11.930;2022-12-01T00:39:51;35.85;;;32.50;;
27800;SDS011;15181;49.112;11.930;2022-12-01T00:42:18;36.03;;;32.53;;
27800;SDS011;15181;49.112;11.930;2022-12-01T00:44:45;33.17;;;30.00;;
27800;SDS011;15181;49.112;11.930;2022-12-01T00:47:13;34.65;;;31.40;;
27800;SDS011;15181;49.112;11.930;2022-12-01T00:49:40;35.05;;;31.65;;
27800;SDS011;15181;49.112;11.930;2022-12-01T00:52:09;34.00;;;30.83;;
27800;SDS011;15181;49.112;11.930;2022-12-01T00:54:37;34.58;;;31.48;;
27800;SDS011;15181;49.112;11.930;2022-12-01T00:57:04;35.55;;;32.25;;
27800;SDS011;15181;49.112;11.930;2022-12-01T00:59:31;34.65;;;31.38;;
27800;SDS011;15181;49.112;11.930;2022-12-01T01:01:58;35.58;;;32.17;;
27800;SDS011;15181;49.112;11.930;2022-12-01T01:04:26;35.28;;;31.98;;
27800;SDS011;15181;49.112;11.930;2022-12-01T01:06:55;36.22;;;32.63;;
27800;SDS011;15181;49.112;11.930;2022-12-01T01:09:21;34.42;;;31.30;;
27800;SDS011;15181;49.112;11.930;2022-12-01T01:11:50;36.50;;;33.05;;
27800;SDS011;15181;49.112;11.930;2022-12-01T01:14:16;35.92;;;32.42;;
27800;SDS011;15181;49.112;11.930;2022-12-01T01:16:43;36.70;;;33.20;;
27800;SDS011;15181;49.112;11.930;2022-12-01T01:19:10;36.47;;;33.05;;
27800;SDS011;15181;49.112;11.930;2022-12-01T01:21:38;37.15;;;33.47;;
27800;SDS011;15181;49.112;11.930;2022-12-01T01:24:05;36.47;;;33.03;;
27800;SDS011;15181;49.112;11.930;2022-12-01T01:26:32;37.45;;;33.90;;
27800;SDS011;15181;49.112;11.930;2022-12-01T01:29:01;35.05;;;31.75;;
27800;SDS011;15181;49.112;11.930;2022-12-01T01:31:30;35.70;;;32.25;;
27800;SDS011;15181;49.112;11.930;2022-12-01T01:33:57;36.10;;;32.85;;
27800;SDS011;15181;49.112;11.930;2022-12-01T01:36:24;37.88;;;34.28;;
27800;SDS011;15181;49.112;11.930;2022-12-01T01:38:53;36.70;;;33.28;;
27800;SDS011;15181;49.112;11.930;2022-12-01T01:41:21;37.40;;;33.88;;
27800;SDS011;15181;49.112;11.930;2022-12-01T01:43:49;36.67;;;33.25;;
27800;SDS011;15181;49.112;11.930;2022-12-01T01:46:17;33.10;;;30.25;;
27800;SDS011;15181;49.112;11.930;2022-12-01T01:48:46;35.83;;;32.53;;
27800;SDS011;15181;49.112;11.930;2022-12-01T01:51:16;36.03;;;32.72;;
27800;SDS011;15181;49.112;11.930;2022-12-01T01:53:47;34.42;;;31.23;;
27800;SDS011;15181;49.112;11.930;2022-12-01T01:56:16;37.33;;;33.63;;
27800;SDS011;15181;49.112;11.930;2022-12-01T01:58:43;36.72;;;33.25;;
27800;SDS011;15181;49.112;11.930;2022-12-01T02:01:10;36.22;;;32.95;;
27800;SDS011;15181;49.112;11.930;2022-12-01T02:03:37;37.40;;;33.90;;
27800;SDS011;15181;49.112;11.930;2022-12-01T02:06:06;37.45;;;33.95;;
27800;SDS011;15181;49.112;11.930;2022-12-01T02:08:34;34.25;;;31.13;;
27800;SDS011;15181;49.112;11.930;2022-12-01T02:11:13;37.72;;;34.03;;
27800;SDS011;15181;49.112;11.930;2022-12-01T02:14:15;34.78;;;31.38;;
27800;SDS011;15181;49.112;11.930;2022-12-01T02:16:57;35.70;;;32.30;;
27800;SDS011;15181;49.112;11.930;2022-12-01T02:19:36;37.55;;;33.95;;
27800;SDS011;15181;49.112;11.930;2022-12-01T02:22:15;38.00;;;34.17;;
27800;SDS011;15181;49.112;11.930;2022-12-01T02:27:43;38.25;;;34.60;;
27800;SDS011;15181;49.112;11.930;2022-12-01T02:30:29;36.88;;;33.45;;
27800;SDS011;15181;49.112;11.930;2022-12-01T02:33:01;36.83;;;33.28;;
27800;SDS011;15181;49.112;11.930;2022-12-01T02:35:33;37.65;;;33.95;;
27800;SDS011;15181;49.112;11.930;2022-12-01T02:38:10;36.50;;;33.10;;
27800;SDS011;15181;49.112;11.930;2022-12-01T02:40:42;35.80;;;32.42;;
27800;SDS011;15181;49.112;11.930;2022-12-01T02:43:15;36.10;;;32.60;;
27800;SDS011;15181;49.112;11.930;2022-12-01T02:45:47;37.85;;;34.13;;
27800;SDS011;15181;49.112;11.930;2022-12-01T02:48:19;38.45;;;34.65;;
27800;SDS011;15181;49.112;11.930;2022-12-01T02:50:50;39.17;;;35.25;;
27800;SDS011;15181;49.112;11.930;2022-12-01T02:53:18;38.40;;;34.40;;
27800;SDS011;15181;49.112;11.930;2022-12-01T02:55:46;39.50;;;35.55;;
27800;SDS011;15181;49.112;11.930;2022-12-01T02:58:14;37.67;;;33.92;;
27800;SDS011;15181;49.112;11.930;2022-12-01T03:00:43;40.03;;;35.88;;
27800;SDS011;15181;49.112;11.930;2022-12-01T03:03:36;36.35;;;32.63;;
27800;SDS011;15181;49.112;11.930;2022-12-01T03:06:23;35.92;;;32.60;;
27800;SDS011;15181;49.112;11.930;2022-12-01T03:09:01;36.17;;;32.88;;
27800;SDS011;15181;49.112;11.930;2022-12-01T03:11:38;38.92;;;35.00;;
27800;SDS011;15181;49.112;11.930;2022-12-01T03:14:16;36.97;;;33.42;;
27800;SDS011;15181;49.112;11.930;2022-12-01T03:17:00;37.65;;;33.88;;
27800;SDS011;15181;49.112;11.930;2022-12-01T03:19:34;36.08;;;32.58;;
27800;SDS011;15181;49.112;11.930;2022-12-01T03:22:07;37.33;;;33.70;;
27800;SDS011;15181;49.112;11.930;2022-12-01T03:24:36;36.47;;;33.15;;
27800;SDS011;15181;49.112;11.930;2022-12-01T03:27:05;36.28;;;32.47;;
27800;SDS011;15181;49.112;11.930;2022-12-01T03:29:35;40.03;;;35.83;;
27800;SDS011;15181;49.112;11.930;2022-12-01T03:32:07;37.95;;;34.28;;
27800;SDS011;15181;49.112;11.930;2022-12-01T03:34:39;38.78;;;34.33;;
27800;SDS011;15181;49.112;11.930;2022-12-01T03:37:11;37.78;;;34.05;;
27800;SDS011;15181;49.112;11.930;2022-12-01T03:39:43;37.83;;;34.00;;
27800;SDS011;15181;49.112;11.930;2022-12-01T03:42:13;37.65;;;34.10;;
27800;SDS011;15181;49.112;11.930;2022-12-01T03:44:44;36.78;;;33.03;;
27800;SDS011;15181;49.112;11.930;2022-12-01T03:47:16;37.97;;;34.28;;
27800;SDS011;15181;49.112;11.930;2022-12-01T03:49:45;36.78;;;33.28;;
27800;SDS011;15181;49.112;11.930;2022-12-01T03:52:18;36.80;;;33.20;;
27800;SDS011;15181;49.112;11.930;2022-12-01T03:54:54;38.45;;;34.55;;
27800;SDS011;15181;49.112;11.930;2022-12-01T03:57:30;35.83;;;32.50;;
27800;SDS011;15181;49.112;11.930;2022-12-01T04:00:04;36.78;;;33.28;;
27800;SDS011;15181;49.112;11.930;2022-12-01T04:02:33;36.75;;;33.40;;
27800;SDS011;15181;49.112;11.930;2022-12-01T04:05:02;38.50;;;34.80;;
27800;SDS011;15181;49.112;11.930;2022-12-01T04:07:29;37.90;;;34.20;;
27800;SDS011;15181;49.112;11.930;2022-12-01T04:09:56;38.40;;;34.65;;
27800;SDS011;15181;49.112;11.930;2022-12-01T04:12:23;39.58;;;35.67;;
27800;SDS011;15181;49.112;11.930;2022-12-01T04:14:57;37.88;;;34.20;;
27800;SDS011;15181;49.112;11.930;2022-12-01T04:17:24;38.28;;;34.67;;
27800;SDS011;15181;49.112;11.930;2022-12-01T04:19:53;39.47;;;35.67;;
27800;SDS011;15181;49.112;11.930;2022-12-01T04:22:20;39.00;;;35.28;;
27800;SDS011;15181;49.112;11.930;2022-12-01T04:24:47;39.15;;;35.42;;
27800;SDS011;15181;49.112;11.930;2022-12-01T04:27:14;41.20;;;37.28;;
27800;SDS011;15181;49.112;11.930;2022-12-01T04:29:41;40.45;;;36.60;;
27800;SDS011;15181;49.112;11.930;2022-12-01T04:32:08;41.45;;;37.25;;
27800;SDS011;15181;49.112;11.930;2022-12-01T04:34:35;36.75;;;33.25;;
27800;SDS011;15181;49.112;11.930;2022-12-01T04:37:04;38.50;;;34.53;;
27800;SDS011;15181;49.112;11.930;2022-12-01T04:39:31;38.45;;;34.75;;
27800;SDS011;15181;49.112;11.930;2022-12-01T04:41:59;40.17;;;36.38;;
27800;SDS011;15181;49.112;11.930;2022-12-01T04:44:26;38.67;;;34.97;;
27800;SDS011;15181;49.112;11.930;2022-12-01T04:46:53;38.28;;;34.45;;
27800;SDS011;15181;49.112;11.930;2022-12-01T04:49:20;36.88;;;33.35;;
27800;SDS011;15181;49.112;11.930;2022-12-01T04:51:47;36.67;;;33.13;;
27800;SDS011;15181;49.112;11.930;2022-12-01T04:54:16;36.55;;;33.15;;
27800;SDS011;15181;49.112;11.930;2022-12-01T04:56:43;37.95;;;34.25;;
27800;SDS011;15181;49.112;11.930;2022-12-01T04:59:10;39.90;;;36.03;;
27800;SDS011;15181;49.112;11.930;2022-12-01T05:01:37;36.25;;;32.70;;
27800;SDS011;15181;49.112;11.930;2022-12-01T05:04:05;37.72;;;34.33;;
27800;SDS011;15181;49.112;11.930;2022-12-01T05:06:32;38.33;;;34.75;;
27800;SDS011;15181;49.112;11.930;2022-12-01T05:08:59;37.58;;;34.08;;
27800;SDS011;15181;49.112;11.930;2022-12-01T05:11:28;38.75;;;35.10;;
27800;SDS011;15181;49.112;11.930;2022-12-01T05:13:56;38.03;;;34.50;;
27800;SDS011;15181;49.112;11.930;2022-12-01T05:16:24;41.15;;;37.10;;
27800;SDS011;15181;49.112;11.930;2022-12-01T05:18:52;39.28;;;35.58;;
27800;SDS011;15181;49.112;11.930;2022-12-01T05:21:42;38.78;;;35.17;;
27800;SDS011;15181;49.112;11.930;2022-12-01T05:24:09;40.85;;;37.08;;
27800;SDS011;15181;49.112;11.930;2022-12-01T05:26:39;38.08;;;34.67;;
27800;SDS011;15181;49.112;11.930;2022-12-01T05:29:09;39.03;;;35.25;;
27800;SDS011;15181;49.112;11.930;2022-12-01T05:31:36;39.92;;;36.17;;
27800;SDS011;15181;49.112;11.930;2022-12-01T05:34:03;39.95;;;35.95;;
27800;SDS011;15181;49.112;11.930;2022-12-01T05:36:31;37.30;;;33.65;;
27800;SDS011;15181;49.112;11.930;2022-12-01T05:38:58;39.03;;;35.22;;
27800;SDS011;15181;49.112;11.930;2022-12-01T05:41:25;39.38;;;35.58;;
27800;SDS011;15181;49.112;11.930;2022-12-01T05:43:53;39.50;;;35.58;;
27800;SDS011;15181;49.112;11.930;2022-12-01T05:46:20;38.08;;;34.40;;
27800;SDS011;15181;49.112;11.930;2022-12-01T05:48:47;37.55;;;34.00;;
27800;SDS011;15181;49.112;11.930;2022-12-01T05:51:15;38.15;;;34.45;;
27800;SDS011;15181;49.112;11.930;2022-12-01T05:53:42;39.72;;;35.83;;
27800;SDS011;15181;49.112;11.930;2022-12-01T05:56:09;40.08;;;36.08;;
27800;SDS011;15181;49.112;11.930;2022-12-01T05:58:36;37.95;;;34.25;;
27800;SDS011;15181;49.112;11.930;2022-12-01T06:01:04;37.85;;;34.15;;
27800;SDS011;15181;49.112;11.930;2022-12-01T06:03:32;37.78;;;34.20;;
27800;SDS011;15181;49.112;11.930;2022-12-01T06:05:59;37.53;;;33.88;;
27800;SDS011;15181;49.112;11.930;2022-12-01T06:08:26;40.47;;;36.38;;
27800;SDS011;15181;49.112;11.930;2022-12-01T06:10:52;40.88;;;36.78;;
27800;SDS011;15181;49.112;11.930;2022-12-01T06:13:19;39.33;;;35.60;;
27800;SDS011;15181;49.112;11.930;2022-12-01T06:15:54;40.92;;;36.95;;
27800;SDS011;15181;49.112;11.930;2022-12-01T06:18:23;39.65;;;35.78;;
27800;SDS011;15181;49.112;11.930;2022-12-01T06:20:51;42.17;;;37.95;;
27800;SDS011;15181;49.112;11.930;2022-12-01T06:23:17;41.63;;;37.42;;
27800;SDS011;15181;49.112;11.930;2022-12-01T06:25:44;42.47;;;38.38;;
27800;SDS011;15181;49.112;11.930;2022-12-01T06:28:11;41.55;;;37.22;;
27800;SDS011;15181;49.112;11.930;2022-12-01T06:30:38;41.17;;;37.25;;
27800;SDS011;15181;49.112;11.930;2022-12-01T06:33:05;42.78;;;38.65;;
27800;SDS011;15181;49.112;11.930;2022-12-01T06:35:33;44.83;;;40.10;;
27800;SDS011;15181;49.112;11.930;2022-12-01T06:38:00;42.53;;;38.03;;
27800;SDS011;15181;49.112;11.930;2022-12-01T06:40:27;41.92;;;37.72;;
27800;SDS011;15181;49.112;11.930;2022-12-01T06:42:57;43.97;;;39.35;;
27800;SDS011;15181;49.112;11.930;2022-12-01T06:45:25;45.10;;;39.38;;
27800;SDS011;15181;49.112;11.930;2022-12-01T06:47:52;44.25;;;39.67;;
27800;SDS011;15181;49.112;11.930;2022-12-01T06:50:19;44.67;;;39.83;;
27800;SDS011;15181;49.112;11.930;2022-12-01T06:52:48;42.47;;;38.15;;
27800;SDS011;15181;49.112;11.930;2022-12-01T06:55:15;41.90;;;37.70;;
27800;SDS011;15181;49.112;11.930;2022-12-01T06:57:41;44.95;;;39.35;;
27800;SDS011;15181;49.112;11.930;2022-12-01T07:00:09;42.22;;;37.47;;
27800;SDS011;15181;49.112;11.930;2022-12-01T07:02:37;41.97;;;37.50;;
27800;SDS011;15181;49.112;11.930;2022-12-01T07:05:04;42.58;;;37.97;;
27800;SDS011;15181;49.112;11.930;2022-12-01T07:07:34;39.97;;;35.88;;
27800;SDS011;15181;49.112;11.930;2022-12-01T07:10:02;42.78;;;38.22;;
27800;SDS011;15181;49.112;11.930;2022-12-01T07:12:30;42.47;;;38.08;;
27800;SDS011;15181;49.112;11.930;2022-12-01T07:14:57;42.40;;;37.88;;
27800;SDS011;15181;49.112;11.930;2022-12-01T07:17:24;41.78;;;37.40;;
27800;SDS011;15181;49.112;11.930;2022-12-01T07:19:51;41.25;;;36.95;;
27800;SDS011;15181;49.112;11.930;2022-12-01T07:22:18;40.83;;;36.65;;
27800;SDS011;15181;49.112;11.930;2022-12-01T07:24:45;41.78;;;37.50;;
27800;SDS011;15181;49.112;11.930;2022-12-01T07:27:13;41.53;;;37.22;;
27800;SDS011;15181;49.112;11.930;2022-12-01T07:29:40;42.10;;;38.03;;
27800;SDS011;15181;49.112;11.930;2022-12-01T07:32:07;42.28;;;37.88;;
27800;SDS011;15181;49.112;11.930;2022-12-01T07:34:34;41.97;;;37.70;;
27800;SDS011;15181;49.112;11.930;2022-12-01T07:37:01;42.50;;;38.30;;
27800;SDS011;15181;49.112;11.930;2022-12-01T07:39:28;41.22;;;37.25;;
27800;SDS011;15181;49.112;11.930;2022-12-01T07:41:55;41.65;;;37.38;;
27800;SDS011;15181;49.112;11.930;2022-12-01T07:44:23;42.45;;;38.15;;
27800;SDS011;15181;49.112;11.930;2022-12-01T07:46:50;41.47;;;37.47;;
27800;SDS011;15181;49.112;11.930;2022-12-01T07:49:17;40.70;;;36.50;;
27800;SDS011;15181;49.112;11.930;2022-12-01T07:51:43;38.17;;;34.45;;
27800;SDS011;15181;49.112;11.930;2022-12-01T07:54:10;40.10;;;36.38;;
27800;SDS011;15181;49.112;11.930;2022-12-01T07:56:39;43.75;;;39.60;;
27800;SDS011;15181;49.112;11.930;2022-12-01T07:59:06;40.67;;;36.92;;
27800;SDS011;15181;49.112;11.930;2022-12-01T08:01:34;43.97;;;39.72;;
27800;SDS011;15181;49.112;11.930;2022-12-01T08:04:01;43.15;;;38.90;;
27800;SDS011;15181;49.112;11.930;2022-12-01T08:06:28;41.95;;;37.67;;
27800;SDS011;15181;49.112;11.930;2022-12-01T08:08:55;40.08;;;36.17;;
27800;SDS011;15181;49.112;11.930;2022-12-01T08:11:23;43.38;;;39.13;;
27800;SDS011;15181;49.112;11.930;2022-12-01T08:13:51;41.20;;;37.28;;
27800;SDS011;15181;49.112;11.930;2022-12-01T08:16:20;38.70;;;35.10;;
27800;SDS011;15181;49.112;11.930;2022-12-01T08:18:49;42.53;;;38.30;;
27800;SDS011;15181;49.112;11.930;2022-12-01T08:21:17;40.72;;;36.72;;
27800;SDS011;15181;49.112;11.930;2022-12-01T08:23:45;42.70;;;38.65;;
27800;SDS011;15181;49.112;11.930;2022-12-01T08:26:12;40.72;;;36.92;;
27800;SDS011;15181;49.112;11.930;2022-12-01T08:28:40;40.08;;;36.20;;
27800;SDS011;15181;49.112;11.930;2022-12-01T08:31:08;40.85;;;36.65;;
27800;SDS011;15181;49.112;11.930;2022-12-01T08:33:37;44.15;;;39.75;;
27800;SDS011;15181;49.112;11.930;2022-12-01T08:36:05;42.85;;;38.60;;
27800;SDS011;15181;49.112;11.930;2022-12-01T08:38:33;39.90;;;36.03;;
27800;SDS011;15181;49.112;11.930;2022-12-01T08:41:00;39.88;;;36.15;;
27800;SDS011;15181;49.112;11.930;2022-12-01T08:43:27;40.50;;;36.55;;
27800;SDS011;15181;49.112;11.930;2022-12-01T08:45:56;38.80;;;35.20;;
27800;SDS011;15181;49.112;11.930;2022-12-01T08:48:23;39.55;;;35.50;;
27800;SDS011;15181;49.112;11.930;2022-12-01T08:50:59;39.90;;;36.00;;
27800;SDS011;15181;49.112;11.930;2022-12-01T08:53:28;39.30;;;35.35;;
27800;SDS011;15181;49.112;11.930;2022-12-01T08:55:57;39.05;;;35.28;;
27800;SDS011;15181;49.112;11.930;2022-12-01T08:58:25;39.65;;;35.85;;
27800;SDS011;15181;49.112;11.930;2022-12-01T09:00:52;38.70;;;34.83;;
27800;SDS011;15181;49.112;11.930;2022-12-01T09:03:19;38.72;;;34.95;;
27800;SDS011;15181;49.112;11.930;2022-12-01T09:05:46;38.40;;;34.67;;
27800;SDS011;15181;49.112;11.930;2022-12-01T09:08:12;39.13;;;35.45;;
27800;SDS011;15181;49.112;11.930;2022-12-01T09:10:59;37.72;;;34.33;;
27800;SDS011;15181;49.112;11.930;2022-12-01T09:13:28;36.70;;;33.15;;
27800;SDS011;15181;49.112;11.930;2022-12-01T09:15:56;37.88;;;34.17;;
27800;SDS011;15181;49.112;11.930;2022-12-01T09:18:23;37.70;;;34.15;;
27800;SDS011;15181;49.112;11.930;2022-12-01T09:20:50;38.22;;;34.25;;
27800;SDS011;15181;49.112;11.930;2022-12-01T09:23:18;38.25;;;34.50;;
27800;SDS011;15181;49.112;11.930;2022-12-01T09:25:45;36.28;;;32.72;;
27800;SDS011;15181;49.112;11.930;2022-12-01T09:28:14;36.80;;;33.20;;
27800;SDS011;15181;49.112;11.930;2022-12-01T09:30:42;36.20;;;32.80;;
27800;SDS011;15181;49.112;11.930;2022-12-01T09:33:09;36.00;;;31.98;;
27800;SDS011;15181;49.112;11.930;2022-12-01T09:35:36;37.95;;;34.03;;
27800;SDS011;15181;49.112;11.930;2022-12-01T09:38:04;38.55;;;34.92;;
27800;SDS011;15181;49.112;11.930;2022-12-01T09:40:31;37.50;;;33.97;;
27800;SDS011;15181;49.112;11.930;2022-12-01T09:43:01;37.97;;;34.35;;
27800;SDS011;15181;49.112;11.930;2022-12-01T09:45:35;38.42;;;34.80;;
27800;SDS011;15181;49.112;11.930;2022-12-01T09:48:05;37.25;;;33.67;;
27800;SDS011;15181;49.112;11.930;2022-12-01T09:50:39;38.17;;;34.35;;
27800;SDS011;15181;49.112;11.930;2022-12-01T09:53:06;37.80;;;33.97;;
27800;SDS011;15181;49.112;11.930;2022-12-01T09:55:39;37.60;;;33.70;;
27800;SDS011;15181;49.112;11.930;2022-12-01T09:58:11;37.95;;;34.08;;
27800;SDS011;15181;49.112;11.930;2022-12-01T10:00:44;38.25;;;34.53;;
27800;SDS011;15181;49.112;11.930;2022-12-01T10:03:15;37.15;;;33.65;;
27800;SDS011;15181;49.112;11.930;2022-12-01T10:05:50;38.80;;;34.90;;
27800;SDS011;15181;49.112;11.930;2022-12-01T10:08:21;37.53;;;33.83;;
27800;SDS011;15181;49.112;11.930;2022-12-01T10:10:51;37.38;;;33.63;;
27800;SDS011;15181;49.112;11.930;2022-12-01T10:13:22;38.63;;;34.72;;
27800;SDS011;15181;49.112;11.930;2022-12-01T10:15:53;38.28;;;34.33;;
27800;SDS011;15181;49.112;11.930;2022-12-01T10:18:28;37.97;;;33.97;;
27800;SDS011;15181;49.112;11.930;2022-12-01T10:21:03;36.15;;;32.80;;
27800;SDS011;15181;49.112;11.930;2022-12-01T10:26:37;37.00;;;33.30;;
27800;SDS011;15181;49.112;11.930;2022-12-01T10:29:15;37.00;;;33.35;;
27800;SDS011;15181;49.112;11.930;2022-12-01T10:31:54;37.38;;;33.58;;
27800;SDS011;15181;49.112;11.930;2022-12-01T10:34:23;36.45;;;33.00;;
27800;SDS011;15181;49.112;11.930;2022-12-01T10:36:51;37.17;;;33.58;;
27800;SDS011;15181;49.112;11.930;2022-12-01T10:39:20;38.05;;;34.17;;
27800;SDS011;15181;49.112;11.930;2022-12-01T10:41:52;38.78;;;34.83;;
27800;SDS011;15181;49.112;11.930;2022-12-01T10:44:23;38.05;;;34.30;;
27800;SDS011;15181;49.112;11.930;2022-12-01T10:46:51;36.20;;;32.75;;
27800;SDS011;15181;49.112;11.930;2022-12-01T10:49:33;36.95;;;33.47;;
27800;SDS011;15181;49.112;11.930;2022-12-01T10:52:01;37.13;;;33.42;;
27800;SDS011;15181;49.112;11.930;2022-12-01T10:54:30;37.45;;;33.60;;
27800;SDS011;15181;49.112;11.930;2022-12-01T10:56:59;37.30;;;33.60;;
27800;SDS011;15181;49.112;11.930;2022-12-01T10:59:29;37.15;;;33.50;;
27800;SDS011;15181;49.112;11.930;2022-12-01T11:02:00;36.83;;;33.17;;
27800;SDS011;15181;49.112;11.930;2022-12-01T11:04:32;36.63;;;32.92;;
27800;SDS011;15181;49.112;11.930;2022-12-01T11:07:06;37.95;;;34.25;;
27800;SDS011;15181;49.112;11.930;2022-12-01T11:12:11;36.28;;;32.65;;
27800;SDS011;15181;49.112;11.930;2022-12-01T11:14:41;36.13;;;32.55;;
27800;SDS011;15181;49.112;11.930;2022-12-01T11:17:20;36.85;;;33.25;;
27800;SDS011;15181;49.112;11.930;2022-12-01T11:19:52;37.83;;;34.28;;
27800;SDS011;15181;49.112;11.930;2022-12-01T11:22:20;37.63;;;33.95;;
27800;SDS011;15181;49.112;11.930;2022-12-01T11:24:55;37.80;;;34.25;;
27800;SDS011;15181;49.112;11.930;2022-12-01T11:27:25;36.15;;;32.53;;
27800;SDS011;15181;49.112;11.930;2022-12-01T11:29:54;36.15;;;32.65;;
27800;SDS011;15181;49.112;11.930;2022-12-01T11:32:26;34.40;;;31.20;;
27800;SDS011;15181;49.112;11.930;2022-12-01T11:34:55;35.50;;;32.10;;
27800;SDS011;15181;49.112;11.930;2022-12-01T11:37:26;35.45;;;32.08;;
27800;SDS011;15181;49.112;11.930;2022-12-01T11:40:03;36.67;;;33.17;;
27800;SDS011;15181;49.112;11.930;2022-12-01T11:42:38;35.20;;;31.85;;
27800;SDS011;15181;49.112;11.930;2022-12-01T11:45:08;36.22;;;32.80;;
27800;SDS011;15181;49.112;11.930;2022-12-01T11:48:03;34.63;;;31.23;;
27800;SDS011;15181;49.112;11.930;2022-12-01T11:50:42;33.55;;;30.38;;
27800;SDS011;15181;49.112;11.930;2022-12-01T11:53:25;35.55;;;32.10;;
27800;SDS011;15181;49.112;11.930;2022-12-01T11:55:54;35.15;;;31.88;;
27800;SDS011;15181;49.112;11.930;2022-12-01T11:58:40;34.97;;;31.77;;
27800;SDS011;15181;49.112;11.930;2022-12-01T12:01:10;35.95;;;32.30;;
27800;SDS011;15181;49.112;11.930;2022-12-01T12:03:46;34.83;;;31.42;;
27800;SDS011;15181;49.112;11.930;2022-12-01T12:06:21;34.05;;;30.83;;
27800;SDS011;15181;49.112;11.930;2022-12-01T12:08:59;35.05;;;31.58;;
27800;SDS011;15181;49.112;11.930;2022-12-01T12:11:38;34.40;;;31.15;;
27800;SDS011;15181;49.112;11.930;2022-12-01T12:14:28;35.70;;;32.40;;
27800;SDS011;15181;49.112;11.930;2022-12-01T12:17:11;34.05;;;30.90;;
27800;SDS011;15181;49.112;11.930;2022-12-01T12:20:04;33.85;;;30.85;;
27800;SDS011;15181;49.112;11.930;2022-12-01T12:22:49;35.13;;;32.03;;
27800;SDS011;15181;49.112;11.930;2022-12-01T12:25:30;37.67;;;34.17;;
27800;SDS011;15181;49.112;11.930;2022-12-01T12:28:12;34.35;;;31.20;;
27800;SDS011;15181;49.112;11.930;2022-12-01T12:30:53;37.58;;;34.08;;
27800;SDS011;15181;49.112;11.930;2022-12-01T12:33:34;35.22;;;32.03;;
27800;SDS011;15181;49.112;11.930;2022-12-01T12:36:27;35.05;;;31.95;;
27800;SDS011;15181;49.112;11.930;2022-12-01T12:39:05;34.70;;;31.60;;
27800;SDS011;15181;49.112;11.930;2022-12-01T12:41:41;34.63;;;31.42;;
27800;SDS011;15181;49.112;11.930;2022-12-01T12:44:23;34.08;;;30.85;;
27800;SDS011;15181;49.112;11.930;2022-12-01T12:47:11;35.78;;;32.30;;
27800;SDS011;15181;49.112;11.930;2022-12-01T12:49:49;35.75;;;32.45;;
27800;SDS011;15181;49.112;11.930;2022-12-01T12:52:24;34.75;;;31.55;;
27800;SDS011;15181;49.112;11.930;2022-12-01T12:54:56;34.28;;;31.08;;
27800;SDS011;15181;49.112;11.930;2022-12-01T12:57:30;34.38;;;31.08;;
27800;SDS011;15181;49.112;11.930;2022-12-01T13:00:02;37.60;;;33.92;;
27800;SDS011;15181;49.112;11.930;2022-12-01T13:02:33;35.85;;;32.15;;
27800;SDS011;15181;49.112;11.930;2022-12-01T13:05:08;35.03;;;31.73;;
27800;SDS011;15181;49.112;11.930;2022-12-01T13:07:42;34.10;;;31.05;;
27800;SDS011;15181;49.112;11.930;2022-12-01T13:10:20;35.95;;;32.15;;
27800;SDS011;15181;49.112;11.930;2022-12-01T13:12:53;34.70;;;31.40;;
27800;SDS011;15181;49.112;11.930;2022-12-01T13:15:24;34.30;;;31.30;;
27800;SDS011;15181;49.112;11.930;2022-12-01T13:17:53;36.55;;;33.05;;
27800;SDS011;15181;49.112;11.930;2022-12-01T13:20:24;35.28;;;31.98;;
27800;SDS011;15181;49.112;11.930;2022-12-01T13:22:54;37.55;;;33.90;;
27800;SDS011;15181;49.112;11.930;2022-12-01T13:25:23;36.65;;;33.20;;
27800;SDS011;15181;49.112;11.930;2022-12-01T13:27:55;36.17;;;32.78;;
27800;SDS011;15181;49.112;11.930;2022-12-01T13:30:25;36.53;;;32.90;;
27800;SDS011;15181;49.112;11.930;2022-12-01T13:32:59;36.80;;;33.40;;
27800;SDS011;15181;49.112;11.930;2022-12-01T13:35:29;34.90;;;31.60;;
27800;SDS011;15181;49.112;11.930;2022-12-01T13:40:46;35.35;;;31.88;;
27800;SDS011;15181;49.112;11.930;2022-12-01T13:43:16;39.35;;;35.47;;
27800;SDS011;15181;49.112;11.930;2022-12-01T13:45:44;36.85;;;33.45;;
27800;SDS011;15181;49.112;11.930;2022-12-01T13:48:25;34.65;;;31.45;;
27800;SDS011;15181;49.112;11.930;2022-12-01T13:50:56;34.13;;;31.02;;
27800;SDS011;15181;49.112;11.930;2022-12-01T13:53:30;37.72;;;30.67;;
27800;SDS011;15181;49.112;11.930;2022-12-01T13:58:52;31.90;;;29.08;;
27800;SDS011;15181;49.112;11.930;2022-12-01T14:04:31;31.20;;;28.45;;
27800;SDS011;15181;49.112;11.930;2022-12-01T14:12:54;30.42;;;27.80;;
27800;SDS011;15181;49.112;11.930;2022-12-01T14:15:28;29.85;;;27.25;;
27800;SDS011;15181;49.112;11.930;2022-12-01T14:18:05;29.55;;;26.90;;
27800;SDS011;15181;49.112;11.930;2022-12-01T14:20:45;31.88;;;28.90;;
27800;SDS011;15181;49.112;11.930;2022-12-01T14:23:15;31.80;;;28.80;;
27800;SDS011;15181;49.112;11.930;2022-12-01T14:25:57;31.83;;;28.93;;
27800;SDS011;15181;49.112;11.930;2022-12-01T14:37:46;30.38;;;27.77;;
27800;SDS011;15181;49.112;11.930;2022-12-01T14:40:16;30.92;;;28.30;;
27800;SDS011;15181;49.112;11.930;2022-12-01T14:42:48;29.30;;;26.80;;
27800;SDS011;15181;49.112;11.930;2022-12-01T14:45:38;28.20;;;25.60;;
27800;SDS011;15181;49.112;11.930;2022-12-01T14:48:09;28.42;;;26.00;;
27800;SDS011;15181;49.112;11.930;2022-12-01T14:50:39;29.52;;;26.67;;
27800;SDS011;15181;49.112;11.930;2022-12-01T14:53:14;29.33;;;26.83;;
27800;SDS011;15181;49.112;11.930;2022-12-01T14:55:49;30.35;;;27.75;;
27800;SDS011;15181;49.112;11.930;2022-12-01T14:58:22;29.30;;;26.70;;
27800;SDS011;15181;49.112;11.930;2022-12-01T15:01:03;30.70;;;28.00;;